createdAt,value
2022-12-06T00:04:16.244Z,11.68
2022-12-06T00:08:30.617Z,11.13
2022-12-06T00:12:44.598Z,11.02
2022-12-06T00:17:00.113Z,10.88
2022-12-06T00:21:15.762Z,11.50
2022-12-06T00:25:29.740Z,10.50
2022-12-06T00:29:43.450Z,10.15
2022-12-06T00:33:58.898Z,11.33
2022-12-06T00:38:12.695Z,10.57
2022-12-06T00:42:26.500Z,10.45
2022-12-06T00:46:41.018Z,11.05
2022-12-06T00:50:56.626Z,10.57
2022-12-06T00:55:10.598Z,10.75
2022-12-06T00:59:24.407Z,9.68
2022-12-06T01:03:38.431Z,10.70
2022-12-06T01:07:54.180Z,9.43
2022-12-06T01:12:08.390Z,9.88
2022-12-06T01:16:27.449Z,10.10
2022-12-06T01:20:41.328Z,10.02
2022-12-06T01:24:59.064Z,10.73
2022-12-06T01:29:12.960Z,8.90
2022-12-06T01:33:26.904Z,9.23
2022-12-06T01:37:41.388Z,9.35
2022-12-06T01:41:56.935Z,9.82
2022-12-06T01:46:22.263Z,10.20
2022-12-06T01:50:39.563Z,10.27
2022-12-06T01:54:54.489Z,9.85
2022-12-06T01:59:11.649Z,10.23
2022-12-06T02:03:28.765Z,9.25
2022-12-06T02:07:43.910Z,10.07
2022-12-06T02:11:57.935Z,9.95
2022-12-06T02:16:36.563Z,9.70
2022-12-06T02:20:57.559Z,9.88
2022-12-06T02:25:31.509Z,9.90
2022-12-06T02:30:09.021Z,9.73
2022-12-06T02:34:31.245Z,9.13
2022-12-06T02:38:48.980Z,9.30
2022-12-06T02:43:07.676Z,9.60
2022-12-06T02:47:25.408Z,9.57
2022-12-06T02:51:41.513Z,10.05
2022-12-06T02:55:56.125Z,8.75
2022-12-06T03:00:33.402Z,9.63
2022-12-06T03:04:52.819Z,9.10
2022-12-06T03:09:19.252Z,9.00
2022-12-06T03:13:36.854Z,9.10
2022-12-06T03:17:55.116Z,7.93
2022-12-06T03:22:13.390Z,7.50
2022-12-06T03:26:32.367Z,8.37
2022-12-06T03:30:49.088Z,9.20
2022-12-06T03:35:08.396Z,9.20
2022-12-06T03:39:29.070Z,9.07
2022-12-06T03:43:44.789Z,8.60
2022-12-06T03:48:04.148Z,9.57
2022-12-06T03:52:17.815Z,9.35
2022-12-06T03:56:32.264Z,9.80
2022-12-06T04:00:48.040Z,9.48
2022-12-06T04:05:01.975Z,10.10
2022-12-06T04:09:34.076Z,9.20
2022-12-06T04:13:47.733Z,9.75
2022-12-06T04:18:14.578Z,9.38
2022-12-06T04:22:45.578Z,9.80
2022-12-06T04:27:19.985Z,9.10
2022-12-06T04:31:51.464Z,9.82
2022-12-06T04:36:24.849Z,8.73
2022-12-06T04:40:38.721Z,10.03
2022-12-06T04:44:52.536Z,9.13
2022-12-06T04:49:06.327Z,10.52
2022-12-06T04:53:21.960Z,8.83
2022-12-06T04:57:35.822Z,8.13
2022-12-06T05:01:50.181Z,9.65
2022-12-06T05:06:04.168Z,9.00
2022-12-06T05:10:19.383Z,8.87
2022-12-06T05:14:33.329Z,9.57
2022-12-06T05:18:47.136Z,8.70
2022-12-06T05:23:00.935Z,8.33
2022-12-06T05:27:16.182Z,8.10
2022-12-06T05:31:30.053Z,8.30
2022-12-06T05:35:43.980Z,8.83
2022-12-06T05:39:58.034Z,7.35
2022-12-06T05:44:13.598Z,7.82
2022-12-06T05:48:27.375Z,9.55
2022-12-06T05:52:41.217Z,8.33
2022-12-06T05:56:55.565Z,8.57
2022-12-06T06:01:11.156Z,8.60
2022-12-06T06:05:25.132Z,7.23
2022-12-06T06:09:38.839Z,7.72
2022-12-06T06:13:54.462Z,8.27
2022-12-06T06:18:09.726Z,7.80
2022-12-06T06:22:24.575Z,7.65
2022-12-06T06:26:38.437Z,7.90
2022-12-06T06:30:52.761Z,8.93
2022-12-06T06:35:08.982Z,8.40
2022-12-06T06:39:22.873Z,7.50
2022-12-06T06:43:36.724Z,7.55
2022-12-06T06:47:50.561Z,8.20
2022-12-06T06:52:05.836Z,8.40
2022-12-06T06:56:20.258Z,6.95
2022-12-06T07:00:34.476Z,8.50
2022-12-06T07:04:49.877Z,8.55
2022-12-06T07:09:05.426Z,8.50
2022-12-06T07:13:20.850Z,7.70
2022-12-06T07:17:35.247Z,8.00
2022-12-06T07:21:49.081Z,6.80
2022-12-06T07:26:06.240Z,8.95
2022-12-06T07:30:25.749Z,6.87
2022-12-06T07:34:41.146Z,7.75
2022-12-06T07:38:57.364Z,8.13
2022-12-06T07:43:29.817Z,6.87
2022-12-06T07:47:45.186Z,6.82
2022-12-06T07:51:59.573Z,7.32
2022-12-06T07:56:13.444Z,7.72
2022-12-06T08:00:28.652Z,6.33
2022-12-06T08:04:42.694Z,6.63
2022-12-06T08:08:56.782Z,6.38
2022-12-06T08:13:10.569Z,6.53
2022-12-06T08:17:25.854Z,7.28
2022-12-06T08:21:39.630Z,6.38
2022-12-06T08:25:58.805Z,6.17
2022-12-06T08:30:12.885Z,7.10
2022-12-06T08:34:28.136Z,7.55
2022-12-06T08:38:44.113Z,7.72
2022-12-06T08:43:12.005Z,7.13
2022-12-06T08:47:47.980Z,7.00
2022-12-06T08:52:24.025Z,6.70
2022-12-06T08:56:57.967Z,6.93
2022-12-06T09:01:37.718Z,6.75
2022-12-06T09:06:15.966Z,7.53
2022-12-06T09:10:51.003Z,7.77
2022-12-06T09:15:25.990Z,7.57
2022-12-06T09:20:05.476Z,7.07
2022-12-06T09:24:39.929Z,7.00
2022-12-06T09:29:09.194Z,7.30
2022-12-06T09:33:42.994Z,7.78
2022-12-06T09:38:15.940Z,8.75
2022-12-06T09:43:09.945Z,8.60
2022-12-06T09:47:55.951Z,8.13
2022-12-06T09:52:52.983Z,7.40
2022-12-06T09:57:33.014Z,8.50
2022-12-06T10:02:11.125Z,9.07
2022-12-06T10:06:57.065Z,8.57
2022-12-06T10:11:44.923Z,8.10
2022-12-06T10:16:28.942Z,7.40
2022-12-06T10:21:07.895Z,7.45
2022-12-06T10:25:56.161Z,7.63
2022-12-06T10:30:29.892Z,6.83
2022-12-06T10:35:09.883Z,6.20
2022-12-06T10:39:54.904Z,6.40
2022-12-06T10:44:38.951Z,6.67
2022-12-06T10:49:18.859Z,6.95
2022-12-06T10:53:52.065Z,7.22
2022-12-06T10:58:35.929Z,7.80
2022-12-06T11:03:18.853Z,7.13
2022-12-06T11:07:55.950Z,8.15
2022-12-06T11:12:37.894Z,5.90
2022-12-06T11:17:06.961Z,8.37
2022-12-06T11:21:46.875Z,7.35
2022-12-06T11:26:23.002Z,7.43
2022-12-06T11:30:56.856Z,5.57
2022-12-06T11:35:34.875Z,7.03
2022-12-06T11:40:21.841Z,8.18
2022-12-06T11:44:59.851Z,6.70
2022-12-06T11:49:43.915Z,6.93
2022-12-06T11:54:28.811Z,5.38
2022-12-06T11:59:14.813Z,6.47
2022-12-06T12:03:44.035Z,6.40
2022-12-06T12:08:21.042Z,5.93
2022-12-06T12:13:14.828Z,5.63
2022-12-06T12:17:50.892Z,5.90
2022-12-06T12:22:33.073Z,5.05
2022-12-06T12:27:06.817Z,4.88
2022-12-06T12:31:40.880Z,6.13
2022-12-06T12:36:30.816Z,5.50
2022-12-06T12:41:01.402Z,4.70
2022-12-06T12:45:34.850Z,5.15
2022-12-06T12:50:10.834Z,5.67
2022-12-06T12:54:47.787Z,6.10
2022-12-06T12:59:23.842Z,6.43
2022-12-06T13:03:58.868Z,5.80
2022-12-06T13:08:37.800Z,5.50
2022-12-06T13:13:15.869Z,5.55
2022-12-06T13:17:56.461Z,5.65
2022-12-06T13:22:35.786Z,6.00
2022-12-06T13:27:10.782Z,4.05
2022-12-06T13:31:43.908Z,5.88
2022-12-06T13:36:20.738Z,6.23
2022-12-06T13:41:04.794Z,5.57
2022-12-06T13:45:48.824Z,5.68
2022-12-06T13:51:00.744Z,4.67
2022-12-06T13:56:08.766Z,4.43
2022-12-06T14:01:01.922Z,4.68
2022-12-06T14:06:13.870Z,4.47
2022-12-06T14:10:48.990Z,3.83
2022-12-06T14:15:20.481Z,3.72
2022-12-06T14:19:56.865Z,5.70
2022-12-06T14:24:38.719Z,5.77
2022-12-06T14:29:13.698Z,5.55
2022-12-06T14:33:48.688Z,4.43
2022-12-06T14:38:36.760Z,4.80
2022-12-06T14:43:12.783Z,5.20
2022-12-06T14:47:48.705Z,4.82
2022-12-06T14:52:23.583Z,4.07
2022-12-06T14:56:58.716Z,4.77
2022-12-06T15:01:35.732Z,3.88
2022-12-06T15:06:25.684Z,4.85
2022-12-06T15:10:59.027Z,5.43
2022-12-06T15:15:52.372Z,5.03
2022-12-06T15:20:28.826Z,3.75
2022-12-06T15:25:06.800Z,4.40
2022-12-06T15:29:41.965Z,5.35
2022-12-06T15:34:15.715Z,4.57
2022-12-06T15:38:48.697Z,4.40
2022-12-06T15:43:40.656Z,3.90
2022-12-06T15:48:17.680Z,4.55
2022-12-06T15:52:51.891Z,4.88
2022-12-06T15:57:24.677Z,4.60
2022-12-06T16:02:00.698Z,3.38
2022-12-06T16:06:36.840Z,4.68
2022-12-06T16:11:12.032Z,5.07
2022-12-06T16:15:45.675Z,4.40
2022-12-06T16:20:38.639Z,5.40
2022-12-06T16:25:07.444Z,5.65
2022-12-06T16:29:41.643Z,5.37
2022-12-06T16:34:15.772Z,5.35
2022-12-06T16:38:42.937Z,5.35
2022-12-06T16:43:18.734Z,5.53
2022-12-06T16:47:52.606Z,5.03
2022-12-06T16:52:25.610Z,4.75
2022-12-06T16:56:53.984Z,5.23
2022-12-06T17:01:31.564Z,5.10
2022-12-06T17:06:05.632Z,5.40
2022-12-06T17:10:40.601Z,5.43
2022-12-06T17:15:14.606Z,5.10
2022-12-06T17:19:50.674Z,5.05
2022-12-06T17:24:25.562Z,4.72
2022-12-06T17:28:58.561Z,5.37
2022-12-06T17:33:32.593Z,4.72
2022-12-06T17:38:07.566Z,4.60
2022-12-06T17:43:02.557Z,4.87
2022-12-06T17:47:36.630Z,4.43
2022-12-06T17:52:10.562Z,5.00
2022-12-06T17:56:46.571Z,6.32
2022-12-06T18:01:22.623Z,6.40
2022-12-06T18:05:57.763Z,6.50
2022-12-06T18:10:31.678Z,5.97
2022-12-06T18:15:00.272Z,6.73
2022-12-06T18:19:36.572Z,6.95
2022-12-06T18:24:31.989Z,7.30
2022-12-06T18:29:20.558Z,6.50
2022-12-06T18:33:55.583Z,6.13
2022-12-06T18:38:29.514Z,6.60
2022-12-06T18:42:56.352Z,6.80
2022-12-06T18:47:30.536Z,6.67
2022-12-06T18:52:05.515Z,6.30
2022-12-06T18:56:41.506Z,7.00
2022-12-06T19:01:22.961Z,5.83
2022-12-06T19:06:03.305Z,5.13
2022-12-06T19:10:41.538Z,7.57
2022-12-06T19:15:18.114Z,8.17
2022-12-06T19:19:56.275Z,6.95
2022-12-06T19:24:30.457Z,6.30
2022-12-06T19:29:05.529Z,8.60
2022-12-06T19:33:39.476Z,7.50
2022-12-06T19:38:12.512Z,6.55
2022-12-06T19:43:18.441Z,5.90
2022-12-06T19:47:54.510Z,6.30
2022-12-06T19:52:31.047Z,6.95
2022-12-06T19:57:05.450Z,5.57
2022-12-06T20:01:40.501Z,6.27
2022-12-06T20:06:20.457Z,5.65
2022-12-06T20:10:54.450Z,6.38
2022-12-06T20:15:21.279Z,6.28
2022-12-06T20:19:55.445Z,5.30
2022-12-06T20:24:30.422Z,5.32
2022-12-06T20:29:04.488Z,4.68
2022-12-06T20:33:37.455Z,5.97
2022-12-06T20:38:11.439Z,6.57
2022-12-06T20:42:46.417Z,5.70
2022-12-06T20:47:20.414Z,5.83
2022-12-06T20:51:53.928Z,4.95
2022-12-06T20:56:29.415Z,5.32
2022-12-06T21:01:00.532Z,5.53
2022-12-06T21:05:34.422Z,5.30
2022-12-06T21:10:07.422Z,5.22
2022-12-06T21:14:41.518Z,5.47
2022-12-06T21:19:19.599Z,6.13
2022-12-06T21:23:53.385Z,5.45
2022-12-06T21:28:27.374Z,5.97
2022-12-06T21:33:05.687Z,5.70
2022-12-06T21:37:41.751Z,6.38
2022-12-06T21:42:17.407Z,5.63
2022-12-06T21:46:51.400Z,5.70
2022-12-06T21:51:26.394Z,5.83
2022-12-06T21:56:01.583Z,6.20
2022-12-06T22:05:00.787Z,6.40
2022-12-06T22:09:14.475Z,6.32
2022-12-06T22:13:30.314Z,7.43
2022-12-06T22:17:44.490Z,7.93
2022-12-06T22:21:58.667Z,7.65
2022-12-06T22:26:16.310Z,6.32
2022-12-06T22:30:31.641Z,6.47
2022-12-06T22:34:45.569Z,6.70
2022-12-06T22:39:14.337Z,5.20
2022-12-06T22:43:48.342Z,5.93
2022-12-06T22:48:23.325Z,5.97
2022-12-06T22:52:57.412Z,6.90
2022-12-06T22:57:24.545Z,6.50
2022-12-06T23:01:58.460Z,5.70
2022-12-06T23:06:35.366Z,5.68
2022-12-06T23:11:10.394Z,5.78
2022-12-06T23:15:45.600Z,6.35
2022-12-06T23:20:20.373Z,6.87
2022-12-06T23:24:56.361Z,5.93
2022-12-06T23:29:23.255Z,7.10
2022-12-06T23:33:58.323Z,6.63
2022-12-06T23:38:32.366Z,6.05
2022-12-06T23:43:07.274Z,6.88
2022-12-06T23:47:43.648Z,5.73
2022-12-06T23:52:17.317Z,6.10
2022-12-06T23:56:51.270Z,7.28
